Time;durP1;ratioP1;P1;durP2;ratioP2;P2;SDS_P1;SDS_P2;PMS_P1;PMS_P2;Temp;Humidity;BMP_temperature;BMP_pressure;BME280_temperature;BME280_humidity;BME280_pressure;Samples;Min_cycle;Max_cycle;Signal;HPM_P1;HPM_P2
2022/06/02 00:02:05;;;;;;;3.75;3.35;;;16.20;99.90;;;;;;4859812;29;20273;-91
2022/06/02 00:04:43;;;;;;;3.35;3.05;;;16.20;99.90;;;;;;4860076;29;20216;-91
2022/06/02 00:07:22;;;;;;;3.25;3.05;;;16.20;99.90;;;;;;4860372;29;20280;-90
2022/06/02 00:10:06;;;;;;;3.63;3.30;;;16.20;99.90;;;;;;4860333;29;20232;-91
2022/06/02 00:12:41;;;;;;;3.72;3.30;;;16.30;99.90;;;;;;4860182;29;20215;-91
2022/06/02 00:15:23;;;;;;;3.35;3.05;;;16.30;99.90;;;;;;4860427;29;20208;-91
2022/06/02 00:18:03;;;;;;;3.42;3.13;;;16.20;99.90;;;;;;4860334;29;20213;-91
2022/06/02 00:20:39;;;;;;;18.88;3.45;;;16.20;99.90;;;;;;4859828;29;20246;-90
2022/06/02 00:23:29;;;;;;;3.28;3.08;;;16.20;99.90;;;;;;4859973;29;20212;-90
2022/06/02 00:26:10;;;;;;;3.03;2.72;;;16.10;99.90;;;;;;4859524;29;20316;-91
2022/06/02 00:28:45;;;;;;;3.55;3.25;;;16.10;99.90;;;;;;4859956;29;20228;-91
2022/06/02 00:31:21;;;;;;;3.97;2.80;;;16.10;99.90;;;;;;4859591;29;20212;-92
2022/06/02 00:33:58;;;;;;;3.47;3.17;;;16.00;99.90;;;;;;4863268;29;20212;-92
2022/06/02 00:36:32;;;;;;;7.03;2.85;;;16.00;99.90;;;;;;4863133;29;20212;-91
2022/06/02 00:39:03;;;;;;;3.72;3.42;;;15.90;99.90;;;;;;4862997;29;20240;-90
2022/06/02 00:41:42;;;;;;;5.13;3.17;;;15.90;99.90;;;;;;4862823;29;20223;-90
2022/06/02 00:44:22;;;;;;;3.67;3.35;;;15.90;99.90;;;;;;4863185;29;20224;-92
2022/06/02 00:46:59;;;;;;;3.58;3.28;;;15.90;99.90;;;;;;4863132;29;20232;-91
2022/06/02 00:49:39;;;;;;;3.67;3.38;;;15.90;99.90;;;;;;4863260;29;20234;-91
2022/06/02 00:52:29;;;;;;;4.30;3.50;;;15.90;99.90;;;;;;4863012;29;20231;-91
2022/06/02 00:58:08;;;;;;;3.28;2.97;;;15.80;99.90;;;;;;4862844;29;20229;-90
2022/06/02 01:00:44;;;;;;;3.92;3.40;;;15.80;99.90;;;;;;4862687;29;20292;-89
2022/06/02 01:03:16;;;;;;;5.90;3.63;;;15.80;99.90;;;;;;4862662;29;20291;-91
2022/06/02 01:06:04;;;;;;;3.72;3.42;;;15.80;99.90;;;;;;4862948;29;20258;-91
2022/06/02 01:08:51;;;;;;;6.72;3.95;;;15.80;99.90;;;;;;4862607;29;20204;-90
2022/06/02 01:11:30;;;;;;;4.45;4.05;;;15.80;99.90;;;;;;4862662;29;20208;-91
2022/06/02 01:14:13;;;;;;;4.80;4.40;;;15.80;99.90;;;;;;4862710;29;20264;-90
2022/06/02 01:16:50;;;;;;;3.80;3.50;;;15.70;99.90;;;;;;4862509;29;20224;-90
2022/06/02 01:19:45;;;;;;;3.90;3.60;;;15.70;99.90;;;;;;4862397;29;20240;-90
2022/06/02 01:22:37;;;;;;;3.88;3.65;;;15.70;99.90;;;;;;4862229;29;20304;-90
2022/06/02 01:25:30;;;;;;;3.53;3.22;;;15.60;99.90;;;;;;4862028;29;20220;-91
2022/06/02 01:28:31;;;;;;;3.78;3.45;;;15.60;99.90;;;;;;4862660;29;20208;-90
2022/06/02 01:31:13;;;;;;;3.95;3.65;;;15.60;99.90;;;;;;4861813;29;20233;-91
2022/06/02 01:33:53;;;;;;;5.20;4.03;;;15.60;99.90;;;;;;4862082;29;20204;-91
2022/06/02 01:36:30;;;;;;;4.20;3.80;;;15.60;99.90;;;;;;4862483;29;20197;-91
2022/06/02 01:39:12;;;;;;;3.80;3.50;;;15.60;99.90;;;;;;4862181;29;20236;-90
2022/06/02 01:41:48;;;;;;;5.95;4.50;;;15.50;99.90;;;;;;4861948;29;20243;-90
2022/06/02 01:44:25;;;;;;;3.75;3.45;;;15.50;99.90;;;;;;4861057;29;20219;-90
2022/06/02 01:47:04;;;;;;;4.85;4.45;;;15.50;99.90;;;;;;4861885;29;20232;-90
2022/06/02 01:49:41;;;;;;;4.75;4.35;;;15.50;99.90;;;;;;4861863;29;20244;-91
2022/06/02 01:52:26;;;;;;;4.32;3.97;;;15.50;99.90;;;;;;4861535;29;20272;-90
2022/06/02 01:55:07;;;;;;;5.25;4.18;;;15.50;99.90;;;;;;4861943;29;20208;-90
2022/06/02 01:57:50;;;;;;;4.53;4.22;;;15.50;99.90;;;;;;4862104;29;20224;-91
2022/06/02 02:00:22;;;;;;;4.97;4.57;;;15.50;99.90;;;;;;4861814;29;20232;-89
2022/06/02 02:02:59;;;;;;;6.28;3.67;;;15.40;99.90;;;;;;4861764;29;20213;-90
2022/06/02 02:05:44;;;;;;;5.60;4.70;;;15.40;99.90;;;;;;4861744;29;20205;-90
2022/06/02 02:08:31;;;;;;;5.00;4.53;;;15.40;99.90;;;;;;4861458;29;20224;-90
2022/06/02 02:11:14;;;;;;;4.75;4.35;;;15.40;99.90;;;;;;4861301;29;20212;-90
2022/06/02 02:13:51;;;;;;;4.90;4.55;;;15.40;99.90;;;;;;4861828;29;20241;-90
2022/06/02 02:16:27;;;;;;;4.88;4.47;;;15.30;99.90;;;;;;4861711;29;20208;-89
2022/06/02 02:19:09;;;;;;;5.22;4.72;;;15.30;99.90;;;;;;4861229;29;20232;-89
2022/06/02 02:21:45;;;;;;;5.65;5.15;;;15.30;99.90;;;;;;4861009;29;20240;-89
2022/06/02 02:24:28;;;;;;;3.88;3.53;;;15.30;99.90;;;;;;4861318;29;20299;-89
2022/06/02 02:27:03;;;;;;;3.95;3.65;;;15.30;99.90;;;;;;4860719;29;20261;-89
2022/06/02 02:29:41;;;;;;;4.72;4.22;;;15.30;99.90;;;;;;4861411;29;20236;-89
2022/06/02 02:32:20;;;;;;;4.22;3.92;;;15.30;99.90;;;;;;4860848;29;20228;-90
2022/06/02 02:34:56;;;;;;;5.03;4.32;;;15.20;99.90;;;;;;4861032;29;20239;-90
2022/06/02 02:37:32;;;;;;;3.85;3.60;;;15.20;99.90;;;;;;4861028;29;20213;-90
2022/06/02 02:40:06;;;;;;;4.63;4.22;;;15.10;99.90;;;;;;4860523;29;20265;-90
2022/06/02 02:42:40;;;;;;;4.15;3.85;;;15.10;99.90;;;;;;4860912;29;20243;-94
2022/06/02 02:45:40;;;;;;;3.97;3.67;;;15.00;99.90;;;;;;4861350;29;20308;-91
2022/06/02 02:48:19;;;;;;;3.97;3.67;;;15.00;99.90;;;;;;4861062;29;20284;-90
2022/06/02 02:50:55;;;;;;;4.35;3.95;;;14.90;99.90;;;;;;4850262;29;20204;-91
2022/06/02 02:53:33;;;;;;;4.20;3.83;;;14.90;99.90;;;;;;4861219;29;20232;-90
2022/06/02 02:56:11;;;;;;;3.53;3.25;;;14.90;99.90;;;;;;4860349;29;20208;-89
2022/06/02 02:58:45;;;;;;;4.22;3.90;;;14.80;99.90;;;;;;4861203;29;20264;-89
2022/06/02 03:01:19;;;;;;;3.75;3.47;;;14.90;99.90;;;;;;4860982;29;20216;-90
2022/06/02 03:03:54;;;;;;;4.60;4.13;;;14.90;99.90;;;;;;4860188;29;20292;-90
2022/06/02 03:06:26;;;;;;;3.85;3.55;;;14.80;99.90;;;;;;4860419;29;20212;-90
2022/06/02 03:09:05;;;;;;;4.25;3.90;;;14.80;99.90;;;;;;4842383;29;20239;-90
2022/06/02 03:12:02;;;;;;;6.75;4.47;;;14.80;99.90;;;;;;4841744;29;20272;-90
2022/06/02 03:14:44;;;;;;;3.72;3.42;;;14.90;99.90;;;;;;4841923;29;20258;-90
2022/06/02 03:17:22;;;;;;;3.47;3.17;;;14.90;99.90;;;;;;4842232;29;20213;-90
2022/06/02 03:19:59;;;;;;;3.78;3.40;;;14.90;99.90;;;;;;4841900;29;20232;-90
2022/06/02 03:22:42;;;;;;;4.05;3.25;;;14.90;99.90;;;;;;4841349;29;20221;-90
2022/06/02 03:25:15;;;;;;;3.20;3.00;;;14.90;99.90;;;;;;4841886;29;20300;-87
2022/06/02 03:27:52;;;;;;;3.53;3.25;;;14.90;99.90;;;;;;4841642;29;20270;-88
2022/06/02 03:30:22;;;;;;;3.15;2.92;;;14.90;99.90;;;;;;4841551;29;20245;-88
2022/06/02 03:33:10;;;;;;;3.10;2.90;;;14.90;99.90;;;;;;4841944;29;20244;-88
2022/06/02 03:35:51;;;;;;;4.00;3.70;;;15.00;99.90;;;;;;4841935;29;20212;-87
2022/06/02 03:38:49;;;;;;;3.90;2.88;;;15.00;99.90;;;;;;4841825;29;20225;-88
2022/06/02 03:41:46;;;;;;;4.35;3.95;;;14.90;99.90;;;;;;4841596;29;20273;-89
2022/06/02 03:44:26;;;;;;;4.07;3.67;;;15.00;99.90;;;;;;4841581;29;20269;-90
2022/06/02 03:47:14;;;;;;;4.72;4.32;;;15.00;99.90;;;;;;4841820;29;20243;-89
2022/06/02 03:50:01;;;;;;;3.47;3.28;;;15.00;99.90;;;;;;4848676;29;20289;-90
2022/06/02 03:52:59;;;;;;;4.15;3.75;;;15.10;99.90;;;;;;4843218;29;20256;-88
2022/06/02 03:55:42;;;;;;;3.95;3.65;;;15.00;99.90;;;;;;4845320;29;20232;-89
2022/06/02 03:58:23;;;;;;;3.58;3.28;;;15.00;99.90;;;;;;4858561;29;20313;-89
2022/06/02 04:00:59;;;;;;;4.28;3.83;;;15.10;99.90;;;;;;4849093;29;20205;-88
2022/06/02 04:03:52;;;;;;;3.55;3.25;;;15.10;99.90;;;;;;4847001;29;20275;-89
2022/06/02 04:06:48;;;;;;;4.22;3.88;;;15.20;99.90;;;;;;4854765;29;20260;-90
2022/06/02 04:09:38;;;;;;;4.15;3.85;;;15.20;99.90;;;;;;4851092;29;20228;-89
2022/06/02 04:15:25;;;;;;;4.20;3.80;;;15.30;99.90;;;;;;4846874;29;20205;-89
2022/06/02 04:18:01;;;;;;;5.63;3.80;;;15.40;99.90;;;;;;4845950;29;20200;-89
2022/06/02 04:20:45;;;;;;;4.35;4.00;;;15.50;99.90;;;;;;4864071;29;20220;-89
2022/06/02 04:23:32;;;;;;;4.00;3.60;;;15.50;99.90;;;;;;4862611;29;20211;-89
2022/06/02 04:26:15;;;;;;;3.67;3.38;;;15.60;99.90;;;;;;4845397;29;20209;-89
2022/06/02 04:28:54;;;;;;;3.05;2.85;;;15.60;99.90;;;;;;4848004;29;20233;-89
2022/06/02 04:31:48;;;;;;;4.00;3.28;;;15.60;99.90;;;;;;4846742;29;20240;-89
2022/06/02 04:34:27;;;;;;;3.42;3.13;;;15.70;99.90;;;;;;4855292;29;20216;-90
2022/06/02 04:37:03;;;;;;;3.15;2.95;;;15.70;99.90;;;;;;4863253;29;20204;-89
2022/06/02 04:39:42;;;;;;;3.83;3.53;;;15.80;99.90;;;;;;4863787;29;20236;-88
2022/06/02 04:42:21;;;;;;;3.95;3.28;;;15.80;99.90;;;;;;4854256;29;20201;-89
2022/06/02 04:45:01;;;;;;;4.43;2.70;;;15.90;99.90;;;;;;4845239;29;20220;-88
2022/06/02 04:47:40;;;;;;;4.72;3.50;;;15.90;99.90;;;;;;4848293;29;20230;-88
2022/06/02 04:50:16;;;;;;;7.47;3.78;;;16.00;99.90;;;;;;4862778;29;20263;-88
2022/06/02 04:53:03;;;;;;;4.50;3.63;;;16.00;99.90;;;;;;4863126;29;20239;-88
2022/06/02 04:55:38;;;;;;;2.72;2.53;;;16.10;99.90;;;;;;4845331;29;20201;-89
2022/06/02 04:58:16;;;;;;;3.67;3.00;;;16.10;99.90;;;;;;4848957;29;20227;-88
2022/06/02 05:00:53;;;;;;;3.13;2.92;;;16.10;99.90;;;;;;4845027;29;20202;-88
2022/06/02 05:03:33;;;;;;;3.63;3.33;;;16.20;99.90;;;;;;4844880;29;20209;-88
2022/06/02 05:06:12;;;;;;;4.00;3.35;;;16.20;99.90;;;;;;4845073;29;20232;-88
2022/06/02 05:08:58;;;;;;;2.85;2.65;;;16.20;99.90;;;;;;4859833;29;20321;-87
2022/06/02 05:11:41;;;;;;;3.03;2.78;;;16.20;99.90;;;;;;4845283;29;20213;-88
2022/06/02 05:14:22;;;;;;;2.10;2.00;;;16.30;99.90;;;;;;4854817;29;20205;-88
2022/06/02 05:17:00;;;;;;;2.80;2.60;;;16.30;99.90;;;;;;4857788;29;20208;-88
2022/06/02 05:20:02;;;;;;;2.70;2.50;;;16.40;99.90;;;;;;4862508;29;20236;-89
2022/06/02 05:23:00;;;;;;;3.15;2.85;;;16.40;99.90;;;;;;4822050;29;20292;-95
2022/06/02 05:26:08;;;;;;;2.88;2.60;;;16.40;99.90;;;;;;4844667;29;20237;-92
2022/06/02 05:29:28;;;;;;;4.90;2.75;;;16.40;99.90;;;;;;4847769;29;20315;-95
2022/06/02 05:32:21;;;;;;;2.80;2.60;;;16.50;99.90;;;;;;4796514;29;20222;-91
2022/06/02 05:35:21;;;;;;;2.15;2.05;;;16.50;99.90;;;;;;4806009;29;20222;-91
2022/06/02 05:38:06;;;;;;;2.28;2.17;;;16.60;99.90;;;;;;4843889;29;20197;-91
2022/06/02 05:40:43;;;;;;;2.47;2.28;;;16.70;99.90;;;;;;4861920;29;20236;-91
2022/06/02 05:43:26;;;;;;;2.13;2.03;;;16.80;99.90;;;;;;4863427;29;20205;-92
2022/06/02 05:46:21;;;;;;;2.70;2.50;;;17.00;99.90;;;;;;4858460;29;20209;-90
2022/06/02 05:49:06;;;;;;;1.77;1.67;;;17.10;99.90;;;;;;4849999;29;20236;-91
2022/06/02 05:51:39;;;;;;;4.90;2.50;;;17.20;99.90;;;;;;4851671;29;20288;-90
2022/06/02 05:54:20;;;;;;;2.38;2.17;;;17.40;99.90;;;;;;4845502;29;20263;-91
2022/06/02 05:57:01;;;;;;;2.88;2.67;;;17.40;99.90;;;;;;4854114;29;20248;-92
2022/06/02 05:59:55;;;;;;;2.78;2.33;;;17.50;99.90;;;;;;4843905;29;20308;-86
2022/06/02 06:02:40;;;;;;;2.90;2.63;;;17.80;99.90;;;;;;4848509;29;20295;-87
2022/06/02 06:05:24;;;;;;;2.58;2.38;;;17.80;99.90;;;;;;4849713;29;20209;-86
2022/06/02 06:08:18;;;;;;;2.53;1.88;;;17.80;99.90;;;;;;4842529;29;20300;-86
2022/06/02 06:11:02;;;;;;;2.08;1.98;;;17.80;99.90;;;;;;4842930;29;20294;-86
2022/06/02 06:13:43;;;;;;;2.40;2.20;;;17.80;99.90;;;;;;4842917;29;20297;-85
2022/06/02 06:16:21;;;;;;;1.73;1.63;;;17.90;99.90;;;;;;4842918;29;20252;-86
2022/06/02 06:19:02;;;;;;;2.40;2.17;;;18.00;99.90;;;;;;4842676;29;20240;-86
2022/06/02 06:21:47;;;;;;;2.22;2.05;;;18.10;99.90;;;;;;4842901;29;20216;-86
2022/06/02 06:24:29;;;;;;;2.83;2.42;;;18.30;99.90;;;;;;4842799;29;20223;-86
2022/06/02 06:27:05;;;;;;;2.10;2.00;;;18.20;99.90;;;;;;4842714;29;20211;-86
2022/06/02 06:29:43;;;;;;;2.30;2.10;;;18.20;99.90;;;;;;4842124;29;20233;-86
2022/06/02 06:32:20;;;;;;;2.20;2.00;;;18.30;99.90;;;;;;4842914;29;20252;-86
2022/06/02 06:34:58;;;;;;;2.08;1.98;;;18.40;99.90;;;;;;4842947;29;20251;-86
2022/06/02 06:37:56;;;;;;;2.63;1.95;;;18.50;99.90;;;;;;4842653;29;20243;-86
2022/06/02 06:40:51;;;;;;;2.05;1.90;;;18.80;99.90;;;;;;4842219;29;20237;-86
2022/06/02 06:43:34;;;;;;;2.20;2.05;;;18.80;99.90;;;;;;4841414;29;20225;-86
2022/06/02 06:46:09;;;;;;;3.55;2.25;;;18.90;99.90;;;;;;4842734;29;20253;-86
2022/06/02 06:48:42;;;;;;;1.90;1.80;;;19.10;99.90;;;;;;4842717;29;20252;-87
2022/06/02 06:51:25;;;;;;;2.00;1.85;;;19.30;99.90;;;;;;4842308;29;20308;-86
2022/06/02 06:54:04;;;;;;;1.88;1.77;;;19.30;99.90;;;;;;4842614;29;20217;-86
2022/06/02 06:56:38;;;;;;;1.73;1.63;;;19.40;99.90;;;;;;4842457;29;20216;-86
2022/06/02 06:59:21;;;;;;;2.15;1.77;;;19.40;99.90;;;;;;4842072;29;20232;-85
2022/06/02 07:01:59;;;;;;;2.08;1.88;;;19.50;99.90;;;;;;4842268;29;20312;-85
2022/06/02 07:04:36;;;;;;;2.03;1.92;;;19.50;99.90;;;;;;4841999;29;20268;-86
2022/06/02 07:07:13;;;;;;;14.10;2.38;;;19.50;99.90;;;;;;4842343;29;20291;-85
2022/06/02 07:09:53;;;;;;;3.45;1.60;;;19.60;99.90;;;;;;4841687;29;20237;-86
2022/06/02 07:15:27;;;;;;;2.03;1.50;;;19.60;99.90;;;;;;4842276;29;20305;-86
2022/06/02 07:18:02;;;;;;;1.95;1.85;;;19.50;99.90;;;;;;4841985;29;20213;-86
2022/06/02 07:20:47;;;;;;;2.00;1.77;;;19.50;99.90;;;;;;4841697;29;20236;-85
2022/06/02 07:23:33;;;;;;;1.75;1.65;;;19.70;99.90;;;;;;4842050;29;20274;-86
2022/06/02 07:26:13;;;;;;;1.77;1.67;;;19.90;99.90;;;;;;4842046;29;20245;-86
2022/06/02 07:28:55;;;;;;;1.80;1.70;;;19.90;99.90;;;;;;4842314;29;20241;-86
2022/06/02 07:31:37;;;;;;;1.88;1.77;;;19.90;99.90;;;;;;4841749;29;20268;-86
2022/06/02 07:34:23;;;;;;;1.90;1.80;;;20.30;99.90;;;;;;4841832;29;20272;-86
2022/06/02 07:37:13;;;;;;;1.90;1.80;;;21.50;99.90;;;;;;4842114;29;20221;-86
2022/06/02 07:40:06;;;;;;;3.40;1.63;;;23.00;99.90;;;;;;4842035;29;20324;-86
2022/06/02 07:43:15;;;;;;;2.33;2.13;;;24.20;99.90;;;;;;4844473;29;20213;-86
2022/06/02 07:45:54;;;;;;;2.53;2.00;;;25.30;99.90;;;;;;4823288;29;20213;-86
2022/06/02 07:48:46;;;;;;;1.80;1.70;;;25.20;99.90;;;;;;4845392;29;20229;-86
2022/06/02 07:51:20;;;;;;;1.90;1.80;;;25.30;99.90;;;;;;4845321;29;20213;-86
2022/06/02 07:54:05;;;;;;;11.02;1.85;;;26.30;99.90;;;;;;4845839;29;20243;-86
2022/06/02 07:56:42;;;;;;;1.85;1.75;;;27.50;99.90;;;;;;4845753;29;20216;-86
2022/06/02 07:59:23;;;;;;;2.22;2.03;;;28.20;99.90;;;;;;4845285;29;20233;-87
2022/06/02 08:02:21;;;;;;;2.25;2.05;;;28.20;99.90;;;;;;4845244;29;20213;-86
2022/06/02 08:05:03;;;;;;;1.73;1.63;;;27.90;99.90;;;;;;4845449;29;20308;-86
2022/06/02 08:07:38;;;;;;;1.90;1.80;;;28.10;99.20;;;;;;4845333;29;20219;-86
2022/06/02 08:10:20;;;;;;;1.92;1.40;;;28.50;98.50;;;;;;4845349;29;20264;-86
2022/06/02 08:12:57;;;;;;;1.85;1.75;;;29.10;96.90;;;;;;4849161;29;20207;-87
2022/06/02 08:15:38;;;;;;;2.38;2.28;;;28.90;96.00;;;;;;4850416;29;20267;-85
2022/06/02 08:18:21;;;;;;;1.95;1.85;;;28.80;96.10;;;;;;4845597;29;20295;-85
2022/06/02 08:21:15;;;;;;;1.67;1.58;;;29.30;95.20;;;;;;4853716;29;20296;-86
2022/06/02 08:24:09;;;;;;;2.03;1.75;;;29.80;95.80;;;;;;4862254;29;20208;-85
2022/06/02 08:26:46;;;;;;;2.97;1.60;;;30.30;93.60;;;;;;4844445;29;20296;-86
2022/06/02 08:29:28;;;;;;;1.98;1.88;;;30.40;89.90;;;;;;4847636;29;20228;-86
2022/06/02 08:32:12;;;;;;;2.55;2.03;;;30.10;94.40;;;;;;4863784;29;20242;-86
2022/06/02 08:34:49;;;;;;;1.73;1.63;;;31.10;86.80;;;;;;4859143;29;20215;-86
2022/06/02 08:37:40;;;;;;;1.27;1.20;;;30.50;83.30;;;;;;4845646;29;20268;-86
2022/06/02 08:44:18;;;;;;;2.15;1.95;;;31.60;82.50;;;;;;4851114;29;20212;-85
2022/06/02 08:47:17;;;;;;;1.90;1.73;;;32.50;77.20;;;;;;4852628;29;20286;-85
2022/06/02 08:50:17;;;;;;;1.58;1.48;;;32.10;74.80;;;;;;4848017;29;20260;-85
2022/06/02 08:53:34;;;;;;;1.70;1.60;;;32.20;75.80;;;;;;4859493;29;20208;-85
2022/06/02 08:56:32;;;;;;;1.13;1.13;;;32.20;75.00;;;;;;4852555;29;20276;-85
2022/06/02 08:59:50;;;;;;;1.58;1.48;;;32.80;72.30;;;;;;4858486;29;20296;-85
2022/06/02 09:02:47;;;;;;;1.25;1.25;;;33.50;72.30;;;;;;4859576;29;20209;-85
2022/06/02 09:05:52;;;;;;;1.33;1.30;;;33.80;72.00;;;;;;4846474;29;20213;-85
2022/06/02 09:08:39;;;;;;;1.40;1.35;;;34.20;64.40;;;;;;4821971;29;20299;-85
2022/06/02 09:11:29;;;;;;;1.40;1.33;;;33.00;64.10;;;;;;4856196;29;20312;-85
2022/06/02 09:14:31;;;;;;;1.30;1.30;;;32.40;65.30;;;;;;4846280;29;20208;-85
2022/06/02 09:17:06;;;;;;;1.40;1.30;;;31.40;66.60;;;;;;4844932;29;20294;-85
2022/06/02 09:19:43;;;;;;;1.45;1.40;;;31.60;70.80;;;;;;4862711;29;20266;-85
2022/06/02 09:22:34;;;;;;;2.30;1.75;;;31.30;67.50;;;;;;4858898;29;20272;-85
2022/06/02 09:25:22;;;;;;;1.50;1.42;;;30.80;67.10;;;;;;4844757;29;20297;-86
2022/06/02 09:28:22;;;;;;;1.63;1.52;;;30.20;67.30;;;;;;4855512;29;20231;-86
2022/06/02 09:31:07;;;;;;;2.85;1.83;;;29.70;66.20;;;;;;4862835;29;20323;-85
2022/06/02 09:34:02;;;;;;;1.45;1.40;;;29.10;68.50;;;;;;4862850;29;20240;-85
2022/06/02 09:37:06;;;;;;;1.20;1.20;;;29.50;72.90;;;;;;4860596;29;20246;-85
2022/06/02 09:39:50;;;;;;;1.65;1.55;;;29.50;68.90;;;;;;4849110;29;20271;-85
2022/06/02 09:42:39;;;;;;;2.03;1.40;;;29.20;66.50;;;;;;4855955;29;20234;-86
2022/06/02 09:45:24;;;;;;;1.55;1.50;;;29.50;70.00;;;;;;4863184;29;20237;-85
2022/06/02 09:48:07;;;;;;;1.60;1.50;;;30.40;69.00;;;;;;4857480;29;20300;-86
2022/06/02 09:51:19;;;;;;;1.50;1.40;;;30.90;66.20;;;;;;4862016;29;20308;-86
2022/06/02 09:54:16;;;;;;;2.00;1.48;;;31.20;66.30;;;;;;4861103;29;20204;-86
2022/06/02 10:00:11;;;;;;;1.52;1.42;;;29.90;68.90;;;;;;4842510;29;20225;-85
2022/06/02 10:02:53;;;;;;;1.55;1.45;;;29.50;70.40;;;;;;4851675;29;20216;-85
2022/06/02 10:05:47;;;;;;;1.73;1.63;;;30.50;70.30;;;;;;4861221;29;20211;-85
2022/06/02 10:08:31;;;;;;;4.35;1.70;;;31.20;67.30;;;;;;4855044;29;20216;-84
2022/06/02 10:11:10;;;;;;;1.00;1.00;;;31.80;64.60;;;;;;4855187;29;20318;-84
2022/06/02 10:14:10;;;;;;;1.77;1.65;;;31.70;63.40;;;;;;4859821;29;20262;-85
2022/06/02 10:17:24;;;;;;;1.73;1.63;;;31.80;63.80;;;;;;4857292;29;20284;-84
2022/06/02 10:20:16;;;;;;;1.80;1.70;;;31.30;64.80;;;;;;4861955;29;20230;-84
2022/06/02 10:22:57;;;;;;;1.42;1.33;;;31.50;64.80;;;;;;4862264;29;20298;-84
2022/06/02 10:25:41;;;;;;;1.60;1.50;;;32.00;71.70;;;;;;4861986;29;20207;-84
2022/06/02 10:28:30;;;;;;;1.95;1.60;;;31.90;64.10;;;;;;4861945;29;20228;-84
2022/06/02 10:31:44;;;;;;;1.98;1.80;;;32.00;63.60;;;;;;4861915;29;20310;-83
2022/06/02 10:34:44;;;;;;;2.03;1.80;;;32.20;63.70;;;;;;4811326;29;20292;-83
2022/06/02 10:37:42;;;;;;;1.80;1.70;;;31.90;63.50;;;;;;4851230;29;20208;-83
2022/06/02 10:40:36;;;;;;;1.80;1.60;;;32.20;64.20;;;;;;4843213;29;20255;-83
2022/06/02 10:43:33;;;;;;;3.35;1.83;;;32.70;64.80;;;;;;4843519;29;20292;-83
2022/06/02 10:46:29;;;;;;;2.35;1.70;;;32.60;66.00;;;;;;4848539;29;20205;-86
2022/06/02 10:49:14;;;;;;;1.40;1.40;;;31.80;67.50;;;;;;4850881;29;20221;-84
2022/06/02 10:52:27;;;;;;;1.90;1.80;;;31.80;66.10;;;;;;4848384;29;20311;-85
2022/06/02 10:55:33;;;;;;;1.67;1.58;;;32.10;65.00;;;;;;4859853;29;20212;-85
2022/06/02 10:58:39;;;;;;;1.73;1.63;;;32.70;67.70;;;;;;4847037;29;20287;-85
2022/06/02 11:01:44;;;;;;;1.70;1.50;;;33.20;61.20;;;;;;4848120;29;20292;-84
2022/06/02 11:05:01;;;;;;;1.63;1.52;;;33.30;65.50;;;;;;4853429;29;20214;-86
2022/06/02 11:08:12;;;;;;;2.60;1.63;;;32.80;64.40;;;;;;4846794;29;20211;-84
2022/06/02 11:11:00;;;;;;;1.80;1.65;;;32.90;63.40;;;;;;4852684;29;20238;-84
2022/06/02 11:14:07;;;;;;;1.48;1.30;;;32.50;62.20;;;;;;4856880;29;20213;-83
2022/06/02 11:17:05;;;;;;;1.83;1.73;;;32.90;63.80;;;;;;4842315;29;20299;-84
2022/06/02 11:20:08;;;;;;;1.70;1.60;;;33.30;61.50;;;;;;4842361;29;20228;-84
2022/06/02 11:23:11;;;;;;;1.52;1.42;;;33.10;59.80;;;;;;4842502;29;20217;-84
2022/06/02 11:26:26;;;;;;;1.73;1.60;;;32.90;64.10;;;;;;4842655;29;20220;-84
2022/06/02 11:29:26;;;;;;;1.70;1.60;;;33.30;62.20;;;;;;4842447;29;20236;-84
2022/06/02 11:32:12;;;;;;;1.55;1.45;;;33.80;62.60;;;;;;4842305;29;20236;-84
2022/06/02 11:35:13;;;;;;;1.60;1.50;;;34.00;60.90;;;;;;4842642;29;20209;-84
2022/06/02 11:38:24;;;;;;;2.92;2.13;;;33.70;62.20;;;;;;4847151;29;20246;-86
2022/06/02 11:41:04;;;;;;;4.60;1.60;;;33.20;61.50;;;;;;4825719;29;20227;-86
2022/06/02 11:43:48;;;;;;;2.45;1.60;;;33.00;63.30;;;;;;4846200;29;20300;-86
2022/06/02 11:46:34;;;;;;;1.50;1.40;;;32.50;64.00;;;;;;4843977;29;20217;-86
2022/06/02 11:49:42;;;;;;;15.63;1.85;;;31.70;66.90;;;;;;4860854;29;20236;-86
2022/06/02 11:52:27;;;;;;;12.50;2.00;;;31.70;60.50;;;;;;4860136;29;20239;-87
2022/06/02 11:55:17;;;;;;;1.77;1.67;;;31.90;62.10;;;;;;4861068;29;20244;-87
2022/06/02 11:58:19;;;;;;;1.70;1.60;;;32.50;62.40;;;;;;4855863;29;20209;-86
2022/06/02 12:01:29;;;;;;;1.95;1.65;;;33.10;61.80;;;;;;4850619;29;20265;-86
2022/06/02 12:04:35;;;;;;;1.70;1.60;;;33.30;58.20;;;;;;4854150;29;20348;-86
2022/06/02 12:07:33;;;;;;;2.53;1.70;;;33.00;59.20;;;;;;4852129;29;20264;-86
2022/06/02 12:10:45;;;;;;;1.77;1.67;;;32.40;61.60;;;;;;4842206;29;20237;-86
2022/06/02 12:13:30;;;;;;;1.65;1.55;;;31.80;64.60;;;;;;4843946;29;20235;-84
2022/06/02 12:16:22;;;;;;;2.17;1.50;;;32.00;66.60;;;;;;4860875;29;20209;-84
2022/06/02 12:19:07;;;;;;;1.83;1.48;;;32.10;61.50;;;;;;4857829;29;20255;-84
2022/06/02 12:21:50;;;;;;;1.58;1.48;;;31.90;56.20;;;;;;4860330;29;20223;-86
2022/06/02 12:24:32;;;;;;;1.70;1.60;;;31.70;59.00;;;;;;4859918;29;20215;-84
2022/06/02 12:27:32;;;;;;;1.45;1.35;;;31.90;58.70;;;;;;4847577;29;20209;-84
2022/06/02 12:30:14;;;;;;;1.63;1.52;;;31.70;60.70;;;;;;4860542;29;20303;-84
2022/06/02 12:32:59;;;;;;;1.75;1.65;;;31.30;61.50;;;;;;4863112;29;20231;-84
2022/06/02 12:36:08;;;;;;;2.40;1.80;;;30.60;60.20;;;;;;4863904;29;20212;-84
2022/06/02 12:38:57;;;;;;;1.83;1.60;;;30.30;62.30;;;;;;4820200;29;20266;-84
2022/06/02 12:41:46;;;;;;;1.85;1.55;;;30.40;61.80;;;;;;4853916;29;20291;-83
2022/06/02 12:44:40;;;;;;;1.70;1.60;;;30.30;59.50;;;;;;4863642;29;20276;-84
2022/06/02 12:47:30;;;;;;;2.83;2.05;;;30.40;59.60;;;;;;4863613;29;20272;-84
2022/06/02 12:50:28;;;;;;;1.85;1.75;;;30.30;60.70;;;;;;4846441;29;20276;-84
2022/06/02 12:53:30;;;;;;;1.88;1.77;;;30.40;63.20;;;;;;4849043;29;20312;-84
2022/06/02 12:56:24;;;;;;;1.70;1.60;;;30.20;61.30;;;;;;4859416;29;20291;-84
2022/06/02 12:59:30;;;;;;;1.40;1.30;;;30.10;62.40;;;;;;4859696;29;20312;-84
2022/06/02 13:02:08;;;;;;;1.63;1.52;;;30.20;62.10;;;;;;4828409;29;20213;-84
2022/06/02 13:05:33;;;;;;;1.63;1.52;;;30.40;61.40;;;;;;4844710;29;20296;-84
2022/06/02 13:08:43;;;;;;;2.20;1.95;;;30.40;60.30;;;;;;4860822;29;20208;-86
2022/06/02 13:11:51;;;;;;;1.90;1.70;;;30.80;61.70;;;;;;4856367;29;20224;-86
2022/06/02 13:14:47;;;;;;;1.63;1.52;;;31.00;60.20;;;;;;4858303;29;20291;-86
2022/06/02 13:17:28;;;;;;;1.63;1.52;;;30.90;58.80;;;;;;4861333;29;20383;-86
2022/06/02 13:20:30;;;;;;;1.90;1.80;;;30.70;59.40;;;;;;4861129;29;20262;-86
2022/06/02 13:23:31;;;;;;;1.45;1.40;;;30.40;57.60;;;;;;4854642;29;20219;-86
2022/06/02 13:26:29;;;;;;;2.42;1.50;;;30.40;60.60;;;;;;4856016;29;20355;-85
2022/06/02 13:29:34;;;;;;;3.15;1.50;;;30.70;58.40;;;;;;4853053;29;20302;-86
2022/06/02 13:32:35;;;;;;;1.75;1.63;;;31.10;60.10;;;;;;4858957;29;20235;-85
2022/06/02 13:35:40;;;;;;;1.63;1.52;;;31.40;60.70;;;;;;4806521;29;20261;-85
2022/06/02 13:38:47;;;;;;;1.60;1.50;;;31.40;61.70;;;;;;4844584;29;20233;-85
2022/06/02 13:41:53;;;;;;;1.48;1.38;;;31.20;60.50;;;;;;4832934;29;20269;-85
2022/06/02 13:44:51;;;;;;;1.50;1.40;;;31.20;60.60;;;;;;4844192;29;20308;-85
2022/06/02 13:47:38;;;;;;;1.70;1.60;;;31.30;60.70;;;;;;4820416;29;20216;-85
2022/06/02 13:50:53;;;;;;;3.45;1.63;;;31.40;61.20;;;;;;4844275;29;20297;-85
2022/06/02 13:59:46;;;;;;;1.95;1.70;;;32.00;59.70;;;;;;4841734;29;20233;-85
2022/06/02 14:02:50;;;;;;;1.73;1.63;;;32.10;59.30;;;;;;4846734;29;20256;-85
2022/06/02 14:05:35;;;;;;;2.15;1.85;;;32.00;58.70;;;;;;4848130;29;20204;-85
2022/06/02 14:08:42;;;;;;;3.67;1.70;;;31.90;60.00;;;;;;4861394;29;20268;-85
2022/06/02 14:11:37;;;;;;;1.88;1.70;;;31.90;59.10;;;;;;4861077;29;20312;-85
2022/06/02 14:14:23;;;;;;;1.60;1.50;;;31.70;60.70;;;;;;4843540;29;20244;-85
2022/06/02 14:17:03;;;;;;;2.33;2.13;;;31.20;59.40;;;;;;4843800;29;20261;-85
2022/06/02 14:19:55;;;;;;;1.90;1.60;;;31.10;60.00;;;;;;4845912;29;20233;-85
2022/06/02 14:22:31;;;;;;;1.80;1.70;;;30.80;60.50;;;;;;4843487;29;20205;-85
2022/06/02 14:25:10;;;;;;;3.30;2.70;;;30.30;61.20;;;;;;4845417;29;20264;-85
2022/06/02 14:27:46;;;;;;;1.70;1.60;;;30.10;62.30;;;;;;4843532;29;20207;-86
2022/06/02 14:30:19;;;;;;;2.50;1.65;;;30.00;62.60;;;;;;4861336;29;20228;-85
2022/06/02 14:32:57;;;;;;;1.98;1.88;;;30.00;62.40;;;;;;4847219;29;20260;-85
2022/06/02 14:35:44;;;;;;;1.80;1.70;;;29.90;61.70;;;;;;4843322;29;20212;-85
2022/06/02 14:38:28;;;;;;;1.88;1.77;;;29.70;61.00;;;;;;4860767;29;20208;-85
2022/06/02 14:41:02;;;;;;;1.98;1.70;;;29.50;61.70;;;;;;4861551;29;20303;-85
2022/06/02 14:43:59;;;;;;;1.77;1.67;;;29.30;60.60;;;;;;4843141;29;20239;-85
2022/06/02 14:46:49;;;;;;;1.80;1.70;;;29.10;62.80;;;;;;4835904;29;20300;-85
2022/06/02 14:49:33;;;;;;;2.42;2.15;;;28.90;62.50;;;;;;4861005;29;20259;-85
2022/06/02 14:52:24;;;;;;;1.80;1.70;;;28.70;63.40;;;;;;4861253;29;20236;-85